sensor_id;sensor_type;location;lat;lon;timestamp;temperature;humidity
15707;DHT22;7953;54.302;10.128;2022-07-23T00:01:45;15.60;99.90
15707;DHT22;7953;54.302;10.128;2022-07-23T00:04:13;15.60;99.90
15707;DHT22;7953;54.302;10.128;2022-07-23T00:06:40;15.60;99.90
15707;DHT22;7953;54.302;10.128;2022-07-23T00:09:07;15.70;99.90
15707;DHT22;7953;54.302;10.128;2022-07-23T00:11:34;15.70;99.90
15707;DHT22;7953;54.302;10.128;2022-07-23T00:14:00;15.60;99.90
15707;DHT22;7953;54.302;10.128;2022-07-23T00:16:29;15.70;99.90
15707;DHT22;7953;54.302;10.128;2022-07-23T00:18:56;15.70;99.90
15707;DHT22;7953;54.302;10.128;2022-07-23T00:21:23;15.60;99.90
15707;DHT22;7953;54.302;10.128;2022-07-23T00:23:49;15.70;99.90
15707;DHT22;7953;54.302;10.128;2022-07-23T00:26:16;15.70;99.90
15707;DHT22;7953;54.302;10.128;2022-07-23T00:28:43;15.70;99.90
15707;DHT22;7953;54.302;10.128;2022-07-23T00:31:10;15.70;99.90
15707;DHT22;7953;54.302;10.128;2022-07-23T00:33:38;15.70;99.90
15707;DHT22;7953;54.302;10.128;2022-07-23T00:36:06;15.60;99.90
15707;DHT22;7953;54.302;10.128;2022-07-23T00:38:33;15.70;99.90
15707;DHT22;7953;54.302;10.128;2022-07-23T00:41:00;15.70;99.90
15707;DHT22;7953;54.302;10.128;2022-07-23T00:43:27;15.70;99.90
15707;DHT22;7953;54.302;10.128;2022-07-23T00:45:54;15.70;99.90
15707;DHT22;7953;54.302;10.128;2022-07-23T00:48:21;15.60;99.90
15707;DHT22;7953;54.302;10.128;2022-07-23T00:50:49;15.60;99.90
15707;DHT22;7953;54.302;10.128;2022-07-23T00:53:17;15.60;99.90
15707;DHT22;7953;54.302;10.128;2022-07-23T00:55:44;15.60;99.90
15707;DHT22;7953;54.302;10.128;2022-07-23T00:58:11;15.50;99.90
15707;DHT22;7953;54.302;10.128;2022-07-23T01:00:39;15.50;99.90
15707;DHT22;7953;54.302;10.128;2022-07-23T01:03:06;15.50;99.90
15707;DHT22;7953;54.302;10.128;2022-07-23T01:05:33;15.50;99.90
15707;DHT22;7953;54.302;10.128;2022-07-23T01:08:01;15.60;99.90
15707;DHT22;7953;54.302;10.128;2022-07-23T01:10:28;15.50;99.90
15707;DHT22;7953;54.302;10.128;2022-07-23T01:12:58;15.50;99.90
15707;DHT22;7953;54.302;10.128;2022-07-23T01:15:25;15.50;99.90
15707;DHT22;7953;54.302;10.128;2022-07-23T01:17:52;15.50;99.90
15707;DHT22;7953;54.302;10.128;2022-07-23T01:20:20;15.50;99.90
15707;DHT22;7953;54.302;10.128;2022-07-23T01:22:49;15.50;99.90
15707;DHT22;7953;54.302;10.128;2022-07-23T01:25:15;15.40;99.90
15707;DHT22;7953;54.302;10.128;2022-07-23T01:27:42;15.50;99.90
15707;DHT22;7953;54.302;10.128;2022-07-23T01:30:10;15.40;99.90
15707;DHT22;7953;54.302;10.128;2022-07-23T01:32:37;15.40;99.90
15707;DHT22;7953;54.302;10.128;2022-07-23T01:35:05;15.40;99.90
15707;DHT22;7953;54.302;10.128;2022-07-23T01:37:32;15.40;99.90
15707;DHT22;7953;54.302;10.128;2022-07-23T01:40:01;15.40;99.90
15707;DHT22;7953;54.302;10.128;2022-07-23T01:42:28;15.40;99.90
15707;DHT22;7953;54.302;10.128;2022-07-23T01:44:55;15.40;99.90
15707;DHT22;7953;54.302;10.128;2022-07-23T01:47:22;15.40;99.90
15707;DHT22;7953;54.302;10.128;2022-07-23T01:49:49;15.40;99.90
15707;DHT22;7953;54.302;10.128;2022-07-23T01:52:15;15.40;99.90
15707;DHT22;7953;54.302;10.128;2022-07-23T01:54:42;15.40;99.90
15707;DHT22;7953;54.302;10.128;2022-07-23T01:57:11;15.40;99.90
15707;DHT22;7953;54.302;10.128;2022-07-23T01:59:38;15.40;99.90
15707;DHT22;7953;54.302;10.128;2022-07-23T02:02:05;15.50;99.90
15707;DHT22;7953;54.302;10.128;2022-07-23T02:04:32;15.50;99.90
15707;DHT22;7953;54.302;10.128;2022-07-23T02:07:02;15.40;99.90
15707;DHT22;7953;54.302;10.128;2022-07-23T02:09:29;15.40;99.90
15707;DHT22;7953;54.302;10.128;2022-07-23T02:11:56;15.40;99.90
15707;DHT22;7953;54.302;10.128;2022-07-23T02:14:25;15.40;99.90
15707;DHT22;7953;54.302;10.128;2022-07-23T02:16:52;15.40;99.90
15707;DHT22;7953;54.302;10.128;2022-07-23T02:19:19;15.40;99.90
15707;DHT22;7953;54.302;10.128;2022-07-23T02:21:46;15.40;99.90
15707;DHT22;7953;54.302;10.128;2022-07-23T02:24:13;15.30;99.90
15707;DHT22;7953;54.302;10.128;2022-07-23T02:26:40;15.30;99.90
15707;DHT22;7953;54.302;10.128;2022-07-23T02:29:07;15.30;99.90
15707;DHT22;7953;54.302;10.128;2022-07-23T02:31:35;15.30;99.90
15707;DHT22;7953;54.302;10.128;2022-07-23T02:34:02;15.30;99.90
15707;DHT22;7953;54.302;10.128;2022-07-23T02:36:29;15.30;99.90
15707;DHT22;7953;54.302;10.128;2022-07-23T02:38:56;15.20;99.90
15707;DHT22;7953;54.302;10.128;2022-07-23T02:41:23;15.30;99.90
15707;DHT22;7953;54.302;10.128;2022-07-23T02:43:50;15.20;99.90
15707;DHT22;7953;54.302;10.128;2022-07-23T02:46:17;15.20;99.90
15707;DHT22;7953;54.302;10.128;2022-07-23T02:48:45;15.20;99.90
15707;DHT22;7953;54.302;10.128;2022-07-23T02:51:12;15.20;99.90
15707;DHT22;7953;54.302;10.128;2022-07-23T02:53:39;15.20;99.90
15707;DHT22;7953;54.302;10.128;2022-07-23T02:56:06;15.20;99.90
15707;DHT22;7953;54.302;10.128;2022-07-23T02:58:33;15.20;99.90
15707;DHT22;7953;54.302;10.128;2022-07-23T03:01:00;15.20;99.90
15707;DHT22;7953;54.302;10.128;2022-07-23T03:03:27;15.20;99.90
15707;DHT22;7953;54.302;10.128;2022-07-23T03:05:55;15.20;99.90
15707;DHT22;7953;54.302;10.128;2022-07-23T03:08:22;15.20;99.90
15707;DHT22;7953;54.302;10.128;2022-07-23T03:10:49;15.20;99.90
15707;DHT22;7953;54.302;10.128;2022-07-23T03:13:16;15.20;99.90
15707;DHT22;7953;54.302;10.128;2022-07-23T03:15:42;15.20;99.90
15707;DHT22;7953;54.302;10.128;2022-07-23T03:18:09;15.20;99.90
15707;DHT22;7953;54.302;10.128;2022-07-23T03:20:36;15.20;99.90
15707;DHT22;7953;54.302;10.128;2022-07-23T03:23:04;15.20;99.90
15707;DHT22;7953;54.302;10.128;2022-07-23T03:25:31;15.20;99.90
15707;DHT22;7953;54.302;10.128;2022-07-23T03:27:58;15.20;99.90
15707;DHT22;7953;54.302;10.128;2022-07-23T03:30:25;15.20;99.90
15707;DHT22;7953;54.302;10.128;2022-07-23T03:32:52;15.20;99.90
15707;DHT22;7953;54.302;10.128;2022-07-23T03:35:19;15.10;99.90
15707;DHT22;7953;54.302;10.128;2022-07-23T03:37:46;15.10;99.90
15707;DHT22;7953;54.302;10.128;2022-07-23T03:40:14;15.20;99.90
15707;DHT22;7953;54.302;10.128;2022-07-23T03:42:41;15.10;99.90
15707;DHT22;7953;54.302;10.128;2022-07-23T03:45:09;15.10;99.90
15707;DHT22;7953;54.302;10.128;2022-07-23T03:47:36;15.10;99.90
15707;DHT22;7953;54.302;10.128;2022-07-23T03:50:05;15.10;99.90
15707;DHT22;7953;54.302;10.128;2022-07-23T03:52:32;15.10;99.90
15707;DHT22;7953;54.302;10.128;2022-07-23T03:54:59;15.20;99.90
15707;DHT22;7953;54.302;10.128;2022-07-23T03:57:27;15.20;99.90
15707;DHT22;7953;54.302;10.128;2022-07-23T03:59:54;15.10;99.90
15707;DHT22;7953;54.302;10.128;2022-07-23T04:02:21;15.20;99.90
15707;DHT22;7953;54.302;10.128;2022-07-23T04:04:48;15.20;99.90
15707;DHT22;7953;54.302;10.128;2022-07-23T04:07:15;15.20;99.90
15707;DHT22;7953;54.302;10.128;2022-07-23T04:09:43;15.20;99.90
15707;DHT22;7953;54.302;10.128;2022-07-23T04:12:10;15.20;99.90
15707;DHT22;7953;54.302;10.128;2022-07-23T04:14:38;15.20;99.90
15707;DHT22;7953;54.302;10.128;2022-07-23T04:17:05;15.20;99.90
15707;DHT22;7953;54.302;10.128;2022-07-23T04:19:32;15.20;99.90
15707;DHT22;7953;54.302;10.128;2022-07-23T04:21:59;15.30;99.90
15707;DHT22;7953;54.302;10.128;2022-07-23T04:24:26;15.30;99.90
15707;DHT22;7953;54.302;10.128;2022-07-23T04:26:53;15.30;99.90
15707;DHT22;7953;54.302;10.128;2022-07-23T04:29:20;15.40;99.90
15707;DHT22;7953;54.302;10.128;2022-07-23T04:31:48;15.40;99.90
15707;DHT22;7953;54.302;10.128;2022-07-23T04:34:15;15.50;99.90
15707;DHT22;7953;54.302;10.128;2022-07-23T04:36:42;15.50;99.90
15707;DHT22;7953;54.302;10.128;2022-07-23T04:39:09;15.60;99.90
15707;DHT22;7953;54.302;10.128;2022-07-23T04:41:36;15.60;99.90
15707;DHT22;7953;54.302;10.128;2022-07-23T04:44:03;15.60;99.90
15707;DHT22;7953;54.302;10.128;2022-07-23T04:46:30;15.60;99.90
15707;DHT22;7953;54.302;10.128;2022-07-23T04:48:58;15.60;99.90
15707;DHT22;7953;54.302;10.128;2022-07-23T04:51:25;15.60;99.90
15707;DHT22;7953;54.302;10.128;2022-07-23T04:53:52;15.70;99.90
15707;DHT22;7953;54.302;10.128;2022-07-23T04:56:19;15.70;99.90
15707;DHT22;7953;54.302;10.128;2022-07-23T04:58:46;15.80;99.90
15707;DHT22;7953;54.302;10.128;2022-07-23T05:01:13;15.80;99.90
15707;DHT22;7953;54.302;10.128;2022-07-23T05:03:40;15.80;99.90
15707;DHT22;7953;54.302;10.128;2022-07-23T05:06:09;15.80;99.90
15707;DHT22;7953;54.302;10.128;2022-07-23T05:08:36;15.80;99.90
15707;DHT22;7953;54.302;10.128;2022-07-23T05:11:02;15.80;99.90
15707;DHT22;7953;54.302;10.128;2022-07-23T05:13:29;15.80;99.90
15707;DHT22;7953;54.302;10.128;2022-07-23T05:15:56;15.80;99.90
15707;DHT22;7953;54.302;10.128;2022-07-23T05:18:23;15.80;99.90
15707;DHT22;7953;54.302;10.128;2022-07-23T05:20:50;15.90;99.90
15707;DHT22;7953;54.302;10.128;2022-07-23T05:23:18;15.90;99.90
15707;DHT22;7953;54.302;10.128;2022-07-23T05:25:45;15.90;99.90
15707;DHT22;7953;54.302;10.128;2022-07-23T05:28:12;15.90;99.90
15707;DHT22;7953;54.302;10.128;2022-07-23T05:30:39;15.90;99.90
15707;DHT22;7953;54.302;10.128;2022-07-23T05:33:06;15.90;99.90
15707;DHT22;7953;54.302;10.128;2022-07-23T05:35:33;15.90;99.90
15707;DHT22;7953;54.302;10.128;2022-07-23T05:38:00;15.90;99.90
15707;DHT22;7953;54.302;10.128;2022-07-23T05:40:29;15.90;99.90
15707;DHT22;7953;54.302;10.128;2022-07-23T05:42:56;15.90;99.90
15707;DHT22;7953;54.302;10.128;2022-07-23T05:45:23;16.00;99.90
15707;DHT22;7953;54.302;10.128;2022-07-23T05:47:50;16.00;99.90
15707;DHT22;7953;54.302;10.128;2022-07-23T05:50:17;16.00;99.90
15707;DHT22;7953;54.302;10.128;2022-07-23T05:52:44;16.00;99.90
15707;DHT22;7953;54.302;10.128;2022-07-23T05:55:11;16.10;99.90
15707;DHT22;7953;54.302;10.128;2022-07-23T05:57:41;16.10;99.90
15707;DHT22;7953;54.302;10.128;2022-07-23T06:00:09;16.10;99.90
15707;DHT22;7953;54.302;10.128;2022-07-23T06:02:37;16.20;99.90
15707;DHT22;7953;54.302;10.128;2022-07-23T06:05:05;16.20;99.90
15707;DHT22;7953;54.302;10.128;2022-07-23T06:07:33;16.10;99.90
15707;DHT22;7953;54.302;10.128;2022-07-23T06:10:00;16.10;99.90
15707;DHT22;7953;54.302;10.128;2022-07-23T06:12:27;16.10;99.90
15707;DHT22;7953;54.302;10.128;2022-07-23T06:14:55;16.20;99.90
15707;DHT22;7953;54.302;10.128;2022-07-23T06:17:22;16.20;99.90
15707;DHT22;7953;54.302;10.128;2022-07-23T06:19:49;16.30;99.90
15707;DHT22;7953;54.302;10.128;2022-07-23T06:22:16;16.30;99.90
15707;DHT22;7953;54.302;10.128;2022-07-23T06:24:43;16.40;99.90
15707;DHT22;7953;54.302;10.128;2022-07-23T06:27:10;16.30;99.90
15707;DHT22;7953;54.302;10.128;2022-07-23T06:29:37;16.40;99.90
15707;DHT22;7953;54.302;10.128;2022-07-23T06:32:07;16.40;99.90
15707;DHT22;7953;54.302;10.128;2022-07-23T06:34:34;16.40;99.90
15707;DHT22;7953;54.302;10.128;2022-07-23T06:37:01;16.40;99.90
15707;DHT22;7953;54.302;10.128;2022-07-23T06:39:28;16.40;99.90
15707;DHT22;7953;54.302;10.128;2022-07-23T06:41:55;16.40;99.90
15707;DHT22;7953;54.302;10.128;2022-07-23T06:44:22;16.50;99.90
15707;DHT22;7953;54.302;10.128;2022-07-23T06:46:49;16.40;99.90
15707;DHT22;7953;54.302;10.128;2022-07-23T06:49:17;16.40;99.90
15707;DHT22;7953;54.302;10.128;2022-07-23T06:51:44;16.40;99.90
15707;DHT22;7953;54.302;10.128;2022-07-23T06:54:11;16.40;99.90
15707;DHT22;7953;54.302;10.128;2022-07-23T06:56:38;16.40;99.90
15707;DHT22;7953;54.302;10.128;2022-07-23T06:59:05;16.40;99.90
15707;DHT22;7953;54.302;10.128;2022-07-23T07:01:32;16.40;99.90
15707;DHT22;7953;54.302;10.128;2022-07-23T07:03:59;16.40;99.90
15707;DHT22;7953;54.302;10.128;2022-07-23T07:06:27;16.50;99.90
15707;DHT22;7953;54.302;10.128;2022-07-23T07:08:54;16.60;99.90
15707;DHT22;7953;54.302;10.128;2022-07-23T07:11:21;16.60;99.90
15707;DHT22;7953;54.302;10.128;2022-07-23T07:13:49;16.60;99.90
15707;DHT22;7953;54.302;10.128;2022-07-23T07:16:16;16.60;99.90
15707;DHT22;7953;54.302;10.128;2022-07-23T07:18:43;16.60;99.90
15707;DHT22;7953;54.302;10.128;2022-07-23T07:21:10;16.60;99.90
15707;DHT22;7953;54.302;10.128;2022-07-23T07:23:38;16.50;99.90
15707;DHT22;7953;54.302;10.128;2022-07-23T07:26:05;16.50;99.90
15707;DHT22;7953;54.302;10.128;2022-07-23T07:28:32;16.40;99.90
15707;DHT22;7953;54.302;10.128;2022-07-23T07:30:59;16.40;99.90
15707;DHT22;7953;54.302;10.128;2022-07-23T07:33:26;16.30;99.90
15707;DHT22;7953;54.302;10.128;2022-07-23T07:35:53;16.30;99.90
15707;DHT22;7953;54.302;10.128;2022-07-23T07:38:20;16.30;99.90
15707;DHT22;7953;54.302;10.128;2022-07-23T07:40:48;16.40;99.90
15707;DHT22;7953;54.302;10.128;2022-07-23T07:43:15;16.50;99.90
15707;DHT22;7953;54.302;10.128;2022-07-23T07:45:42;16.50;99.90
15707;DHT22;7953;54.302;10.128;2022-07-23T07:48:09;16.50;99.90
15707;DHT22;7953;54.302;10.128;2022-07-23T07:50:36;16.50;99.90
15707;DHT22;7953;54.302;10.128;2022-07-23T07:53:02;16.60;99.90
15707;DHT22;7953;54.302;10.128;2022-07-23T07:55:29;16.60;99.90
15707;DHT22;7953;54.302;10.128;2022-07-23T07:57:58;16.70;99.90
15707;DHT22;7953;54.302;10.128;2022-07-23T08:00:25;16.80;99.90
15707;DHT22;7953;54.302;10.128;2022-07-23T08:02:53;16.90;99.90
15707;DHT22;7953;54.302;10.128;2022-07-23T08:05:22;17.00;99.90
15707;DHT22;7953;54.302;10.128;2022-07-23T08:07:49;17.00;99.90
15707;DHT22;7953;54.302;10.128;2022-07-23T08:10:16;17.10;99.90
15707;DHT22;7953;54.302;10.128;2022-07-23T08:12:45;17.20;99.90
15707;DHT22;7953;54.302;10.128;2022-07-23T08:15:15;17.30;99.90
15707;DHT22;7953;54.302;10.128;2022-07-23T08:17:42;17.50;99.90
15707;DHT22;7953;54.302;10.128;2022-07-23T08:20:12;17.70;99.90
15707;DHT22;7953;54.302;10.128;2022-07-23T08:22:44;17.80;99.90
15707;DHT22;7953;54.302;10.128;2022-07-23T08:25:11;17.80;99.90
15707;DHT22;7953;54.302;10.128;2022-07-23T08:27:38;18.00;99.90
15707;DHT22;7953;54.302;10.128;2022-07-23T08:30:06;18.10;99.90
15707;DHT22;7953;54.302;10.128;2022-07-23T08:32:48;18.20;99.90
15707;DHT22;7953;54.302;10.128;2022-07-23T08:35:15;18.30;99.90
15707;DHT22;7953;54.302;10.128;2022-07-23T08:37:42;18.50;99.90
15707;DHT22;7953;54.302;10.128;2022-07-23T08:40:10;18.40;99.90
15707;DHT22;7953;54.302;10.128;2022-07-23T08:42:37;18.40;99.90
15707;DHT22;7953;54.302;10.128;2022-07-23T08:45:07;18.20;99.90
15707;DHT22;7953;54.302;10.128;2022-07-23T08:47:37;18.10;99.90
15707;DHT22;7953;54.302;10.128;2022-07-23T08:50:05;18.00;99.90
15707;DHT22;7953;54.302;10.128;2022-07-23T08:52:34;18.10;99.90
15707;DHT22;7953;54.302;10.128;2022-07-23T08:55:03;18.20;99.90
15707;DHT22;7953;54.302;10.128;2022-07-23T08:57:30;18.20;99.90
15707;DHT22;7953;54.302;10.128;2022-07-23T08:59:57;18.10;99.90
15707;DHT22;7953;54.302;10.128;2022-07-23T09:02:24;18.10;99.90
15707;DHT22;7953;54.302;10.128;2022-07-23T09:04:52;18.30;99.90
15707;DHT22;7953;54.302;10.128;2022-07-23T09:07:19;18.50;99.90
15707;DHT22;7953;54.302;10.128;2022-07-23T09:09:46;18.70;99.90
15707;DHT22;7953;54.302;10.128;2022-07-23T09:12:13;18.60;99.90
15707;DHT22;7953;54.302;10.128;2022-07-23T09:14:41;18.70;99.90
15707;DHT22;7953;54.302;10.128;2022-07-23T09:17:10;18.60;99.90
15707;DHT22;7953;54.302;10.128;2022-07-23T09:19:37;18.50;99.90
15707;DHT22;7953;54.302;10.128;2022-07-23T09:22:19;18.40;99.90
15707;DHT22;7953;54.302;10.128;2022-07-23T09:25:07;18.30;99.90
15707;DHT22;7953;54.302;10.128;2022-07-23T09:27:54;18.30;99.90
15707;DHT22;7953;54.302;10.128;2022-07-23T09:30:24;18.30;99.90
15707;DHT22;7953;54.302;10.128;2022-07-23T09:33:09;18.40;99.90
15707;DHT22;7953;54.302;10.128;2022-07-23T09:35:47;18.50;99.90
15707;DHT22;7953;54.302;10.128;2022-07-23T09:38:17;18.50;99.90
15707;DHT22;7953;54.302;10.128;2022-07-23T09:40:45;18.40;99.90
15707;DHT22;7953;54.302;10.128;2022-07-23T09:43:12;18.40;99.90
15707;DHT22;7953;54.302;10.128;2022-07-23T09:45:39;18.30;99.90
15707;DHT22;7953;54.302;10.128;2022-07-23T09:48:14;18.20;99.90
15707;DHT22;7953;54.302;10.128;2022-07-23T09:50:43;18.20;99.90
15707;DHT22;7953;54.302;10.128;2022-07-23T09:53:11;18.30;99.90
15707;DHT22;7953;54.302;10.128;2022-07-23T09:55:51;18.40;99.90
15707;DHT22;7953;54.302;10.128;2022-07-23T09:58:21;18.40;99.90
15707;DHT22;7953;54.302;10.128;2022-07-23T10:00:52;18.50;99.90
15707;DHT22;7953;54.302;10.128;2022-07-23T10:03:19;18.50;99.90
15707;DHT22;7953;54.302;10.128;2022-07-23T10:05:47;18.70;99.90
15707;DHT22;7953;54.302;10.128;2022-07-23T10:08:17;18.90;99.90
15707;DHT22;7953;54.302;10.128;2022-07-23T10:10:46;19.10;99.90
15707;DHT22;7953;54.302;10.128;2022-07-23T10:13:15;19.50;99.90
15707;DHT22;7953;54.302;10.128;2022-07-23T10:15:56;19.70;99.90
15707;DHT22;7953;54.302;10.128;2022-07-23T10:18:23;19.90;99.90
15707;DHT22;7953;54.302;10.128;2022-07-23T10:20:51;20.20;99.90
15707;DHT22;7953;54.302;10.128;2022-07-23T10:23:22;20.50;99.90
15707;DHT22;7953;54.302;10.128;2022-07-23T10:25:57;20.60;99.90
15707;DHT22;7953;54.302;10.128;2022-07-23T10:28:51;20.70;99.90
15707;DHT22;7953;54.302;10.128;2022-07-23T10:31:31;20.80;99.90
15707;DHT22;7953;54.302;10.128;2022-07-23T10:34:09;20.60;99.90
15707;DHT22;7953;54.302;10.128;2022-07-23T10:36:44;20.20;99.90
15707;DHT22;7953;54.302;10.128;2022-07-23T10:39:17;19.90;99.90
15707;DHT22;7953;54.302;10.128;2022-07-23T10:41:46;19.60;99.90
15707;DHT22;7953;54.302;10.128;2022-07-23T10:44:15;19.50;99.90
15707;DHT22;7953;54.302;10.128;2022-07-23T10:46:56;19.30;99.90
15707;DHT22;7953;54.302;10.128;2022-07-23T10:49:40;19.30;99.90
15707;DHT22;7953;54.302;10.128;2022-07-23T10:52:22;19.20;99.90
15707;DHT22;7953;54.302;10.128;2022-07-23T10:54:52;19.20;99.90
15707;DHT22;7953;54.302;10.128;2022-07-23T10:57:20;19.10;99.90
15707;DHT22;7953;54.302;10.128;2022-07-23T11:00:15;18.90;99.90
15707;DHT22;7953;54.302;10.128;2022-07-23T11:02:44;18.70;99.90
15707;DHT22;7953;54.302;10.128;2022-07-23T11:05:13;18.70;99.90
15707;DHT22;7953;54.302;10.128;2022-07-23T11:08:12;18.70;99.90
15707;DHT22;7953;54.302;10.128;2022-07-23T11:10:43;18.90;99.90
15707;DHT22;7953;54.302;10.128;2022-07-23T11:13:36;19.00;99.90
15707;DHT22;7953;54.302;10.128;2022-07-23T11:16:06;19.20;99.90
15707;DHT22;7953;54.302;10.128;2022-07-23T11:18:56;19.30;99.90
15707;DHT22;7953;54.302;10.128;2022-07-23T11:21:44;19.30;99.90
15707;DHT22;7953;54.302;10.128;2022-07-23T11:24:13;19.20;99.90
15707;DHT22;7953;54.302;10.128;2022-07-23T11:26:57;19.20;99.90
15707;DHT22;7953;54.302;10.128;2022-07-23T11:29:44;19.30;99.90
15707;DHT22;7953;54.302;10.128;2022-07-23T11:32:35;19.50;99.90
15707;DHT22;7953;54.302;10.128;2022-07-23T11:35:19;19.60;99.90
15707;DHT22;7953;54.302;10.128;2022-07-23T11:37:47;19.70;99.90
15707;DHT22;7953;54.302;10.128;2022-07-23T11:40:16;19.50;99.90
15707;DHT22;7953;54.302;10.128;2022-07-23T11:42:53;19.60;99.90
15707;DHT22;7953;54.302;10.128;2022-07-23T11:45:20;19.80;99.90
15707;DHT22;7953;54.302;10.128;2022-07-23T11:47:48;20.00;99.90
15707;DHT22;7953;54.302;10.128;2022-07-23T11:50:15;20.20;99.90
15707;DHT22;7953;54.302;10.128;2022-07-23T11:52:42;20.20;99.90
15707;DHT22;7953;54.302;10.128;2022-07-23T11:55:10;20.20;99.90
15707;DHT22;7953;54.302;10.128;2022-07-23T11:57:39;20.10;99.90
15707;DHT22;7953;54.302;10.128;2022-07-23T12:00:08;20.00;99.90
15707;DHT22;7953;54.302;10.128;2022-07-23T12:02:36;19.90;99.90
15707;DHT22;7953;54.302;10.128;2022-07-23T12:05:06;19.70;99.90
15707;DHT22;7953;54.302;10.128;2022-07-23T12:07:36;19.40;99.90
15707;DHT22;7953;54.302;10.128;2022-07-23T12:10:08;19.30;99.90
15707;DHT22;7953;54.302;10.128;2022-07-23T12:12:37;19.30;99.90
15707;DHT22;7953;54.302;10.128;2022-07-23T12:15:06;19.20;99.90
15707;DHT22;7953;54.302;10.128;2022-07-23T12:17:35;19.50;99.90
15707;DHT22;7953;54.302;10.128;2022-07-23T12:20:05;19.90;99.90
15707;DHT22;7953;54.302;10.128;2022-07-23T12:22:35;20.10;99.90
15707;DHT22;7953;54.302;10.128;2022-07-23T12:25:05;20.40;99.90
15707;DHT22;7953;54.302;10.128;2022-07-23T12:27:33;20.50;99.90
15707;DHT22;7953;54.302;10.128;2022-07-23T12:30:15;20.30;99.90
15707;DHT22;7953;54.302;10.128;2022-07-23T12:32:43;20.20;99.90
15707;DHT22;7953;54.302;10.128;2022-07-23T12:35:12;19.90;99.90
15707;DHT22;7953;54.302;10.128;2022-07-23T12:37:40;19.50;99.90
15707;DHT22;7953;54.302;10.128;2022-07-23T12:40:23;19.50;99.90
15707;DHT22;7953;54.302;10.128;2022-07-23T12:42:51;19.30;99.90
15707;DHT22;7953;54.302;10.128;2022-07-23T12:45:19;19.10;99.90
15707;DHT22;7953;54.302;10.128;2022-07-23T12:48:00;19.10;99.90
15707;DHT22;7953;54.302;10.128;2022-07-23T12:50:42;19.00;99.90
15707;DHT22;7953;54.302;10.128;2022-07-23T12:53:12;18.90;99.90
15707;DHT22;7953;54.302;10.128;2022-07-23T12:55:42;18.90;99.90
15707;DHT22;7953;54.302;10.128;2022-07-23T12:58:14;18.80;99.90
15707;DHT22;7953;54.302;10.128;2022-07-23T13:00:57;18.70;99.90
15707;DHT22;7953;54.302;10.128;2022-07-23T13:03:26;18.60;99.90
15707;DHT22;7953;54.302;10.128;2022-07-23T13:05:55;18.70;99.90
15707;DHT22;7953;54.302;10.128;2022-07-23T13:08:23;19.00;99.90
15707;DHT22;7953;54.302;10.128;2022-07-23T13:10:50;19.30;99.90
15707;DHT22;7953;54.302;10.128;2022-07-23T13:13:21;19.60;99.90
15707;DHT22;7953;54.302;10.128;2022-07-23T13:15:48;19.90;99.90
15707;DHT22;7953;54.302;10.128;2022-07-23T13:18:15;20.00;99.90
15707;DHT22;7953;54.302;10.128;2022-07-23T13:20:43;20.00;99.90
15707;DHT22;7953;54.302;10.128;2022-07-23T13:23:11;20.00;99.90
15707;DHT22;7953;54.302;10.128;2022-07-23T13:25:38;19.90;99.90
15707;DHT22;7953;54.302;10.128;2022-07-23T13:28:05;19.90;99.90
15707;DHT22;7953;54.302;10.128;2022-07-23T13:30:32;19.90;99.90
15707;DHT22;7953;54.302;10.128;2022-07-23T13:33:02;19.80;99.90
15707;DHT22;7953;54.302;10.128;2022-07-23T13:35:29;19.80;99.90
15707;DHT22;7953;54.302;10.128;2022-07-23T13:37:56;19.90;99.90
15707;DHT22;7953;54.302;10.128;2022-07-23T13:40:24;20.00;99.90
15707;DHT22;7953;54.302;10.128;2022-07-23T13:42:52;19.90;99.90
15707;DHT22;7953;54.302;10.128;2022-07-23T13:45:19;19.80;99.90
15707;DHT22;7953;54.302;10.128;2022-07-23T13:47:46;19.50;99.90
15707;DHT22;7953;54.302;10.128;2022-07-23T13:50:13;19.40;99.90
15707;DHT22;7953;54.302;10.128;2022-07-23T13:52:42;19.30;99.90
15707;DHT22;7953;54.302;10.128;2022-07-23T13:55:09;19.30;99.90
15707;DHT22;7953;54.302;10.128;2022-07-23T13:57:38;19.30;99.90
15707;DHT22;7953;54.302;10.128;2022-07-23T14:00:06;19.30;99.90
15707;DHT22;7953;54.302;10.128;2022-07-23T14:02:35;19.50;99.90
15707;DHT22;7953;54.302;10.128;2022-07-23T14:05:02;19.70;99.90
15707;DHT22;7953;54.302;10.128;2022-07-23T14:07:29;19.80;99.90
15707;DHT22;7953;54.302;10.128;2022-07-23T14:09:56;19.90;99.90
15707;DHT22;7953;54.302;10.128;2022-07-23T14:12:23;20.00;99.90
15707;DHT22;7953;54.302;10.128;2022-07-23T14:14:51;19.90;99.90
15707;DHT22;7953;54.302;10.128;2022-07-23T14:17:19;19.90;99.90
15707;DHT22;7953;54.302;10.128;2022-07-23T14:19:46;19.90;99.90
15707;DHT22;7953;54.302;10.128;2022-07-23T14:22:13;19.90;99.90
15707;DHT22;7953;54.302;10.128;2022-07-23T14:24:40;19.90;99.90
15707;DHT22;7953;54.302;10.128;2022-07-23T14:27:07;19.90;99.90
15707;DHT22;7953;54.302;10.128;2022-07-23T14:29:34;19.70;99.90
15707;DHT22;7953;54.302;10.128;2022-07-23T14:32:03;19.50;99.90
15707;DHT22;7953;54.302;10.128;2022-07-23T14:34:30;19.50;99.90
15707;DHT22;7953;54.302;10.128;2022-07-23T14:36:57;19.60;99.90
15707;DHT22;7953;54.302;10.128;2022-07-23T14:39:25;19.70;99.90
15707;DHT22;7953;54.302;10.128;2022-07-23T14:41:52;19.80;99.90
15707;DHT22;7953;54.302;10.128;2022-07-23T14:44:19;19.80;99.90
15707;DHT22;7953;54.302;10.128;2022-07-23T14:46:46;19.80;99.90
15707;DHT22;7953;54.302;10.128;2022-07-23T14:49:14;19.80;99.90
15707;DHT22;7953;54.302;10.128;2022-07-23T14:51:41;19.80;99.90
15707;DHT22;7953;54.302;10.128;2022-07-23T14:54:10;19.80;99.90
15707;DHT22;7953;54.302;10.128;2022-07-23T14:56:37;19.90;99.90
15707;DHT22;7953;54.302;10.128;2022-07-23T14:59:04;19.70;99.90
15707;DHT22;7953;54.302;10.128;2022-07-23T15:01:31;19.80;99.90
15707;DHT22;7953;54.302;10.128;2022-07-23T15:03:59;19.70;99.90
15707;DHT22;7953;54.302;10.128;2022-07-23T15:06:27;19.80;99.90
15707;DHT22;7953;54.302;10.128;2022-07-23T15:08:55;19.90;99.90
15707;DHT22;7953;54.302;10.128;2022-07-23T15:11:22;20.00;99.90
15707;DHT22;7953;54.302;10.128;2022-07-23T15:13:49;20.00;99.90
15707;DHT22;7953;54.302;10.128;2022-07-23T15:16:15;19.90;99.90
15707;DHT22;7953;54.302;10.128;2022-07-23T15:18:42;19.80;99.90
15707;DHT22;7953;54.302;10.128;2022-07-23T15:21:09;19.70;99.90
15707;DHT22;7953;54.302;10.128;2022-07-23T15:23:38;19.70;99.90
15707;DHT22;7953;54.302;10.128;2022-07-23T15:26:06;19.70;99.90
15707;DHT22;7953;54.302;10.128;2022-07-23T15:28:34;19.50;99.90
15707;DHT22;7953;54.302;10.128;2022-07-23T15:31:01;19.50;99.90
15707;DHT22;7953;54.302;10.128;2022-07-23T15:33:27;19.60;99.90
15707;DHT22;7953;54.302;10.128;2022-07-23T15:35:55;19.60;99.90
15707;DHT22;7953;54.302;10.128;2022-07-23T15:38:23;19.60;99.90
15707;DHT22;7953;54.302;10.128;2022-07-23T15:40:52;19.50;99.90